sensor_id;sensor_type;location;lat;lon;timestamp;temperature;humidity
21039;DHT22;10678;51.002;4.786;2023-01-29T00:02:19;-0.80;99.90
21039;DHT22;10678;51.002;4.786;2023-01-29T00:04:45;-0.90;99.90
21039;DHT22;10678;51.002;4.786;2023-01-29T00:07:11;-1.00;99.90
21039;DHT22;10678;51.002;4.786;2023-01-29T00:09:36;-1.10;99.90
21039;DHT22;10678;51.002;4.786;2023-01-29T00:12:02;-1.20;99.90
21039;DHT22;10678;51.002;4.786;2023-01-29T00:14:27;-1.20;99.90
21039;DHT22;10678;51.002;4.786;2023-01-29T00:16:53;-1.20;99.90
21039;DHT22;10678;51.002;4.786;2023-01-29T00:19:19;-1.20;99.90
21039;DHT22;10678;51.002;4.786;2023-01-29T00:21:45;-1.20;99.90
21039;DHT22;10678;51.002;4.786;2023-01-29T00:24:11;-1.20;99.90
21039;DHT22;10678;51.002;4.786;2023-01-29T00:26:36;-1.20;99.90
21039;DHT22;10678;51.002;4.786;2023-01-29T00:29:04;-1.20;99.90
21039;DHT22;10678;51.002;4.786;2023-01-29T00:31:29;-1.30;99.90
21039;DHT22;10678;51.002;4.786;2023-01-29T00:33:55;-1.30;99.90
21039;DHT22;10678;51.002;4.786;2023-01-29T00:36:21;-1.30;99.90
21039;DHT22;10678;51.002;4.786;2023-01-29T00:38:47;-1.20;99.90
21039;DHT22;10678;51.002;4.786;2023-01-29T00:41:25;-1.20;99.90
21039;DHT22;10678;51.002;4.786;2023-01-29T00:44:09;-1.30;99.90
21039;DHT22;10678;51.002;4.786;2023-01-29T00:46:53;-1.40;99.90
21039;DHT22;10678;51.002;4.786;2023-01-29T00:49:19;-1.40;99.90
21039;DHT22;10678;51.002;4.786;2023-01-29T00:51:44;-1.40;99.90
21039;DHT22;10678;51.002;4.786;2023-01-29T00:54:30;-1.30;99.90
21039;DHT22;10678;51.002;4.786;2023-01-29T00:56:56;-1.20;99.90
21039;DHT22;10678;51.002;4.786;2023-01-29T00:59:21;-1.30;99.90
21039;DHT22;10678;51.002;4.786;2023-01-29T01:01:47;-1.20;99.90
21039;DHT22;10678;51.002;4.786;2023-01-29T01:04:31;-1.20;99.90
21039;DHT22;10678;51.002;4.786;2023-01-29T01:06:56;-1.20;99.90
21039;DHT22;10678;51.002;4.786;2023-01-29T01:09:22;-1.10;99.90
21039;DHT22;10678;51.002;4.786;2023-01-29T01:12:06;-1.20;99.90
21039;DHT22;10678;51.002;4.786;2023-01-29T01:14:32;-1.20;99.90
21039;DHT22;10678;51.002;4.786;2023-01-29T01:17:00;-1.10;99.90
21039;DHT22;10678;51.002;4.786;2023-01-29T01:19:26;-1.10;99.90
21039;DHT22;10678;51.002;4.786;2023-01-29T01:21:51;-1.20;99.90
21039;DHT22;10678;51.002;4.786;2023-01-29T01:24:17;-1.20;99.90
21039;DHT22;10678;51.002;4.786;2023-01-29T01:26:44;-1.30;99.90
21039;DHT22;10678;51.002;4.786;2023-01-29T01:29:10;-1.30;99.90
21039;DHT22;10678;51.002;4.786;2023-01-29T01:31:35;-1.30;99.90
21039;DHT22;10678;51.002;4.786;2023-01-29T01:34:01;-1.30;99.90
21039;DHT22;10678;51.002;4.786;2023-01-29T01:36:27;-1.30;99.90
21039;DHT22;10678;51.002;4.786;2023-01-29T01:38:52;-1.30;99.90
21039;DHT22;10678;51.002;4.786;2023-01-29T01:41:21;-1.30;99.90
21039;DHT22;10678;51.002;4.786;2023-01-29T01:43:48;-1.30;99.90
21039;DHT22;10678;51.002;4.786;2023-01-29T01:46:14;-1.20;99.90
21039;DHT22;10678;51.002;4.786;2023-01-29T01:48:40;-1.20;99.90
21039;DHT22;10678;51.002;4.786;2023-01-29T01:51:05;-1.20;99.90
21039;DHT22;10678;51.002;4.786;2023-01-29T01:53:43;-1.10;99.90
21039;DHT22;10678;51.002;4.786;2023-01-29T01:56:17;-1.00;99.90
21039;DHT22;10678;51.002;4.786;2023-01-29T01:59:02;-1.10;99.90
21039;DHT22;10678;51.002;4.786;2023-01-29T02:01:29;-1.20;99.90
21039;DHT22;10678;51.002;4.786;2023-01-29T02:04:10;-1.20;99.90
21039;DHT22;10678;51.002;4.786;2023-01-29T02:06:57;-1.20;99.90
21039;DHT22;10678;51.002;4.786;2023-01-29T02:09:49;-1.20;99.90
21039;DHT22;10678;51.002;4.786;2023-01-29T02:12:17;-1.20;99.90
21039;DHT22;10678;51.002;4.786;2023-01-29T02:14:44;-1.20;99.90
21039;DHT22;10678;51.002;4.786;2023-01-29T02:17:18;-1.20;99.90
21039;DHT22;10678;51.002;4.786;2023-01-29T02:25:49;-1.40;99.90
21039;DHT22;10678;51.002;4.786;2023-01-29T02:41:19;-1.50;99.90
21039;DHT22;10678;51.002;4.786;2023-01-29T02:46:37;-1.50;99.90
21039;DHT22;10678;51.002;4.786;2023-01-29T02:51:45;-1.50;99.90
21039;DHT22;10678;51.002;4.786;2023-01-29T02:54:23;-1.50;99.90
21039;DHT22;10678;51.002;4.786;2023-01-29T02:56:58;-1.50;99.90
21039;DHT22;10678;51.002;4.786;2023-01-29T02:59:41;-1.70;99.90
21039;DHT22;10678;51.002;4.786;2023-01-29T03:02:12;-1.70;99.90
21039;DHT22;10678;51.002;4.786;2023-01-29T03:04:45;-1.70;99.90
21039;DHT22;10678;51.002;4.786;2023-01-29T03:07:18;-1.80;99.90
21039;DHT22;10678;51.002;4.786;2023-01-29T03:10:16;-1.80;99.90
21039;DHT22;10678;51.002;4.786;2023-01-29T03:12:44;-1.80;99.90
21039;DHT22;10678;51.002;4.786;2023-01-29T03:15:19;-1.90;99.90
21039;DHT22;10678;51.002;4.786;2023-01-29T03:18:17;-1.90;99.90
21039;DHT22;10678;51.002;4.786;2023-01-29T03:20:49;-2.00;99.90
21039;DHT22;10678;51.002;4.786;2023-01-29T03:23:20;-1.90;99.90
21039;DHT22;10678;51.002;4.786;2023-01-29T03:25:50;-1.90;99.90
21039;DHT22;10678;51.002;4.786;2023-01-29T03:28:37;-1.90;99.90
21039;DHT22;10678;51.002;4.786;2023-01-29T03:31:23;-1.90;99.90
21039;DHT22;10678;51.002;4.786;2023-01-29T03:34:12;-2.00;99.90
21039;DHT22;10678;51.002;4.786;2023-01-29T03:37:02;-2.10;99.90
21039;DHT22;10678;51.002;4.786;2023-01-29T03:39:28;-2.00;99.90
21039;DHT22;10678;51.002;4.786;2023-01-29T03:42:06;-1.90;99.90
21039;DHT22;10678;51.002;4.786;2023-01-29T03:45:58;-1.80;99.90
21039;DHT22;10678;51.002;4.786;2023-01-29T03:53:27;-1.70;99.90
21039;DHT22;10678;51.002;4.786;2023-01-29T04:01:03;-1.40;99.90
21039;DHT22;10678;51.002;4.786;2023-01-29T04:03:37;-1.50;99.90
21039;DHT22;10678;51.002;4.786;2023-01-29T04:06:10;-1.50;99.90
21039;DHT22;10678;51.002;4.786;2023-01-29T04:08:45;-1.50;99.90
21039;DHT22;10678;51.002;4.786;2023-01-29T04:11:15;-1.60;99.90
21039;DHT22;10678;51.002;4.786;2023-01-29T04:13:42;-1.70;99.90
21039;DHT22;10678;51.002;4.786;2023-01-29T04:16:15;-1.70;99.90
21039;DHT22;10678;51.002;4.786;2023-01-29T04:18:46;-1.70;99.90
21039;DHT22;10678;51.002;4.786;2023-01-29T04:21:13;-1.70;99.90
21039;DHT22;10678;51.002;4.786;2023-01-29T04:23:39;-1.50;99.90
21039;DHT22;10678;51.002;4.786;2023-01-29T04:29:14;-1.20;99.90
21039;DHT22;10678;51.002;4.786;2023-01-29T04:31:59;-1.10;99.90
21039;DHT22;10678;51.002;4.786;2023-01-29T04:37:33;-1.30;99.90
21039;DHT22;10678;51.002;4.786;2023-01-29T04:43:02;-1.30;99.90
21039;DHT22;10678;51.002;4.786;2023-01-29T04:45:52;-1.30;99.90
21039;DHT22;10678;51.002;4.786;2023-01-29T04:51:24;-1.40;99.90
21039;DHT22;10678;51.002;4.786;2023-01-29T04:54:02;-1.40;99.90
21039;DHT22;10678;51.002;4.786;2023-01-29T04:59:11;-1.40;99.90
21039;DHT22;10678;51.002;4.786;2023-01-29T05:01:40;-1.40;99.90
21039;DHT22;10678;51.002;4.786;2023-01-29T05:04:09;-1.40;99.90
21039;DHT22;10678;51.002;4.786;2023-01-29T05:06:37;-1.20;99.90
21039;DHT22;10678;51.002;4.786;2023-01-29T05:09:03;-1.20;99.90
21039;DHT22;10678;51.002;4.786;2023-01-29T05:11:31;-1.10;99.90
21039;DHT22;10678;51.002;4.786;2023-01-29T05:13:58;-1.10;99.90
21039;DHT22;10678;51.002;4.786;2023-01-29T05:16:42;-1.00;99.90
21039;DHT22;10678;51.002;4.786;2023-01-29T05:19:11;-1.00;99.90
21039;DHT22;10678;51.002;4.786;2023-01-29T05:21:38;-0.90;99.90
21039;DHT22;10678;51.002;4.786;2023-01-29T05:24:13;-0.80;99.90
21039;DHT22;10678;51.002;4.786;2023-01-29T05:26:45;-0.70;99.90
21039;DHT22;10678;51.002;4.786;2023-01-29T05:29:30;-0.60;99.90
21039;DHT22;10678;51.002;4.786;2023-01-29T05:31:55;-0.50;99.90
21039;DHT22;10678;51.002;4.786;2023-01-29T05:34:21;-0.30;99.90
21039;DHT22;10678;51.002;4.786;2023-01-29T05:36:46;-0.30;99.90
21039;DHT22;10678;51.002;4.786;2023-01-29T05:39:12;-0.20;99.90
21039;DHT22;10678;51.002;4.786;2023-01-29T05:41:38;-0.20;99.90
21039;DHT22;10678;51.002;4.786;2023-01-29T05:44:04;-0.10;99.90
21039;DHT22;10678;51.002;4.786;2023-01-29T05:46:29;0.00;99.90
21039;DHT22;10678;51.002;4.786;2023-01-29T05:48:55;0.00;99.90
21039;DHT22;10678;51.002;4.786;2023-01-29T05:51:20;0.10;99.90
21039;DHT22;10678;51.002;4.786;2023-01-29T05:53:46;0.20;99.90
21039;DHT22;10678;51.002;4.786;2023-01-29T05:56:11;0.30;99.90
21039;DHT22;10678;51.002;4.786;2023-01-29T05:58:37;0.20;99.90
21039;DHT22;10678;51.002;4.786;2023-01-29T06:01:16;0.30;99.90
21039;DHT22;10678;51.002;4.786;2023-01-29T06:03:42;0.40;99.90
21039;DHT22;10678;51.002;4.786;2023-01-29T06:06:08;0.50;99.90
21039;DHT22;10678;51.002;4.786;2023-01-29T06:08:34;0.50;99.90
21039;DHT22;10678;51.002;4.786;2023-01-29T06:10:59;0.50;99.90
21039;DHT22;10678;51.002;4.786;2023-01-29T06:13:25;0.60;99.90
21039;DHT22;10678;51.002;4.786;2023-01-29T06:15:51;0.60;99.90
21039;DHT22;10678;51.002;4.786;2023-01-29T06:18:16;0.60;99.90
21039;DHT22;10678;51.002;4.786;2023-01-29T06:20:42;0.70;99.90
21039;DHT22;10678;51.002;4.786;2023-01-29T06:23:07;0.70;99.90
21039;DHT22;10678;51.002;4.786;2023-01-29T06:25:33;0.70;99.90
21039;DHT22;10678;51.002;4.786;2023-01-29T06:27:58;0.70;99.90
21039;DHT22;10678;51.002;4.786;2023-01-29T06:30:24;0.90;99.90
21039;DHT22;10678;51.002;4.786;2023-01-29T06:32:50;0.90;99.90
21039;DHT22;10678;51.002;4.786;2023-01-29T06:35:15;0.90;99.90
21039;DHT22;10678;51.002;4.786;2023-01-29T06:37:41;0.80;99.90
21039;DHT22;10678;51.002;4.786;2023-01-29T06:40:07;0.90;99.90
21039;DHT22;10678;51.002;4.786;2023-01-29T06:42:34;1.00;99.90
21039;DHT22;10678;51.002;4.786;2023-01-29T06:45:00;1.00;99.90
21039;DHT22;10678;51.002;4.786;2023-01-29T06:47:26;1.00;99.90
21039;DHT22;10678;51.002;4.786;2023-01-29T06:49:52;1.10;99.90
21039;DHT22;10678;51.002;4.786;2023-01-29T06:52:17;1.20;99.90
21039;DHT22;10678;51.002;4.786;2023-01-29T06:54:43;1.20;99.90
21039;DHT22;10678;51.002;4.786;2023-01-29T06:57:09;1.20;99.90
21039;DHT22;10678;51.002;4.786;2023-01-29T06:59:34;1.20;99.90
21039;DHT22;10678;51.002;4.786;2023-01-29T07:02:00;1.20;99.90
21039;DHT22;10678;51.002;4.786;2023-01-29T07:04:25;1.30;99.90
21039;DHT22;10678;51.002;4.786;2023-01-29T07:06:51;1.40;99.90
21039;DHT22;10678;51.002;4.786;2023-01-29T07:09:16;1.40;99.90
21039;DHT22;10678;51.002;4.786;2023-01-29T07:11:42;1.30;99.90
21039;DHT22;10678;51.002;4.786;2023-01-29T07:14:08;1.40;99.90
21039;DHT22;10678;51.002;4.786;2023-01-29T07:16:33;1.40;99.90
21039;DHT22;10678;51.002;4.786;2023-01-29T07:18:59;1.40;99.90
21039;DHT22;10678;51.002;4.786;2023-01-29T07:21:24;1.50;99.90
21039;DHT22;10678;51.002;4.786;2023-01-29T07:23:50;1.40;99.90
21039;DHT22;10678;51.002;4.786;2023-01-29T07:26:16;1.50;99.90
21039;DHT22;10678;51.002;4.786;2023-01-29T07:28:41;1.60;99.90
21039;DHT22;10678;51.002;4.786;2023-01-29T07:31:08;1.60;99.90
21039;DHT22;10678;51.002;4.786;2023-01-29T07:33:36;1.60;99.90
21039;DHT22;10678;51.002;4.786;2023-01-29T07:36:05;1.60;99.90
21039;DHT22;10678;51.002;4.786;2023-01-29T07:38:31;1.60;99.90
21039;DHT22;10678;51.002;4.786;2023-01-29T07:40:56;1.60;99.90
21039;DHT22;10678;51.002;4.786;2023-01-29T07:43:22;1.90;99.90
21039;DHT22;10678;51.002;4.786;2023-01-29T07:45:49;1.90;99.90
21039;DHT22;10678;51.002;4.786;2023-01-29T07:48:15;1.80;99.90
21039;DHT22;10678;51.002;4.786;2023-01-29T07:50:40;1.90;99.90
21039;DHT22;10678;51.002;4.786;2023-01-29T07:53:13;1.90;99.90
21039;DHT22;10678;51.002;4.786;2023-01-29T07:55:40;1.90;99.90
21039;DHT22;10678;51.002;4.786;2023-01-29T07:58:07;2.10;99.90
21039;DHT22;10678;51.002;4.786;2023-01-29T08:00:33;2.10;99.90
21039;DHT22;10678;51.002;4.786;2023-01-29T08:03:10;2.00;99.90
21039;DHT22;10678;51.002;4.786;2023-01-29T08:05:35;2.00;99.90
21039;DHT22;10678;51.002;4.786;2023-01-29T08:08:01;2.20;99.90
21039;DHT22;10678;51.002;4.786;2023-01-29T08:10:27;2.30;99.90
21039;DHT22;10678;51.002;4.786;2023-01-29T08:12:57;2.30;99.90
21039;DHT22;10678;51.002;4.786;2023-01-29T08:15:23;2.50;99.90
21039;DHT22;10678;51.002;4.786;2023-01-29T08:17:49;2.60;99.90
21039;DHT22;10678;51.002;4.786;2023-01-29T08:20:15;2.60;99.90
21039;DHT22;10678;51.002;4.786;2023-01-29T08:22:41;2.60;99.90
21039;DHT22;10678;51.002;4.786;2023-01-29T08:25:07;2.60;99.90
21039;DHT22;10678;51.002;4.786;2023-01-29T08:27:33;2.50;99.90
21039;DHT22;10678;51.002;4.786;2023-01-29T08:29:58;2.60;99.90
21039;DHT22;10678;51.002;4.786;2023-01-29T08:32:24;2.60;99.90
21039;DHT22;10678;51.002;4.786;2023-01-29T08:34:49;2.60;99.90
21039;DHT22;10678;51.002;4.786;2023-01-29T08:37:15;2.60;99.90
21039;DHT22;10678;51.002;4.786;2023-01-29T08:39:40;2.70;99.90
21039;DHT22;10678;51.002;4.786;2023-01-29T08:42:06;2.80;99.90
21039;DHT22;10678;51.002;4.786;2023-01-29T08:44:32;2.90;99.90
21039;DHT22;10678;51.002;4.786;2023-01-29T08:46:57;2.90;99.90
21039;DHT22;10678;51.002;4.786;2023-01-29T08:49:23;2.90;99.90
21039;DHT22;10678;51.002;4.786;2023-01-29T08:51:48;2.90;99.90
21039;DHT22;10678;51.002;4.786;2023-01-29T08:54:16;3.00;99.90
21039;DHT22;10678;51.002;4.786;2023-01-29T08:56:41;3.00;99.90
21039;DHT22;10678;51.002;4.786;2023-01-29T08:59:09;3.00;99.90
21039;DHT22;10678;51.002;4.786;2023-01-29T09:01:34;3.00;99.90
21039;DHT22;10678;51.002;4.786;2023-01-29T09:04:00;3.10;99.90
21039;DHT22;10678;51.002;4.786;2023-01-29T09:06:25;3.00;99.90
21039;DHT22;10678;51.002;4.786;2023-01-29T09:08:51;3.20;99.90
21039;DHT22;10678;51.002;4.786;2023-01-29T09:11:17;3.30;99.90
21039;DHT22;10678;51.002;4.786;2023-01-29T09:13:42;3.40;99.90
21039;DHT22;10678;51.002;4.786;2023-01-29T09:16:08;3.30;99.90
21039;DHT22;10678;51.002;4.786;2023-01-29T09:18:34;3.50;99.90
21039;DHT22;10678;51.002;4.786;2023-01-29T09:21:00;3.30;99.90
21039;DHT22;10678;51.002;4.786;2023-01-29T09:23:28;3.30;99.90
21039;DHT22;10678;51.002;4.786;2023-01-29T09:25:54;3.30;99.90
21039;DHT22;10678;51.002;4.786;2023-01-29T09:28:20;3.30;99.90
21039;DHT22;10678;51.002;4.786;2023-01-29T09:30:46;3.20;99.90
21039;DHT22;10678;51.002;4.786;2023-01-29T09:33:12;3.20;99.90
21039;DHT22;10678;51.002;4.786;2023-01-29T09:35:40;3.30;99.90
21039;DHT22;10678;51.002;4.786;2023-01-29T09:38:07;3.40;99.90
21039;DHT22;10678;51.002;4.786;2023-01-29T09:43:06;3.50;99.90
21039;DHT22;10678;51.002;4.786;2023-01-29T09:45:35;3.40;99.90
21039;DHT22;10678;51.002;4.786;2023-01-29T09:48:03;3.50;99.90
21039;DHT22;10678;51.002;4.786;2023-01-29T09:50:41;3.50;99.90
21039;DHT22;10678;51.002;4.786;2023-01-29T09:53:19;3.60;99.90
21039;DHT22;10678;51.002;4.786;2023-01-29T09:55:57;3.70;99.90
21039;DHT22;10678;51.002;4.786;2023-01-29T09:58:29;3.70;99.90
21039;DHT22;10678;51.002;4.786;2023-01-29T10:03:42;3.70;99.90
21039;DHT22;10678;51.002;4.786;2023-01-29T10:25:45;4.30;99.90
21039;DHT22;10678;51.002;4.786;2023-01-29T10:28:17;4.40;99.90
21039;DHT22;10678;51.002;4.786;2023-01-29T10:30:49;4.40;99.90
21039;DHT22;10678;51.002;4.786;2023-01-29T10:33:41;4.50;99.90
21039;DHT22;10678;51.002;4.786;2023-01-29T10:36:15;4.60;99.90
21039;DHT22;10678;51.002;4.786;2023-01-29T10:38:45;4.70;99.90
21039;DHT22;10678;51.002;4.786;2023-01-29T10:52:31;4.50;99.90
21039;DHT22;10678;51.002;4.786;2023-01-29T10:55:14;4.70;99.90
21039;DHT22;10678;51.002;4.786;2023-01-29T11:00:40;4.60;99.90
21039;DHT22;10678;51.002;4.786;2023-01-29T11:03:21;4.60;99.90
21039;DHT22;10678;51.002;4.786;2023-01-29T11:06:07;4.70;99.90
21039;DHT22;10678;51.002;4.786;2023-01-29T11:08:48;4.80;99.90
21039;DHT22;10678;51.002;4.786;2023-01-29T11:11:18;4.70;99.90
21039;DHT22;10678;51.002;4.786;2023-01-29T11:16:15;4.80;99.90
21039;DHT22;10678;51.002;4.786;2023-01-29T11:18:54;4.90;99.90
21039;DHT22;10678;51.002;4.786;2023-01-29T11:21:21;4.80;99.90
21039;DHT22;10678;51.002;4.786;2023-01-29T11:23:47;4.90;99.90
21039;DHT22;10678;51.002;4.786;2023-01-29T11:26:17;4.90;99.90
21039;DHT22;10678;51.002;4.786;2023-01-29T11:28:47;4.90;99.90
21039;DHT22;10678;51.002;4.786;2023-01-29T11:33:48;4.70;99.90
21039;DHT22;10678;51.002;4.786;2023-01-29T11:36:31;5.00;99.90
21039;DHT22;10678;51.002;4.786;2023-01-29T11:42:00;5.20;99.90
21039;DHT22;10678;51.002;4.786;2023-01-29T11:47:25;5.10;99.90
21039;DHT22;10678;51.002;4.786;2023-01-29T11:49:55;5.10;99.90
21039;DHT22;10678;51.002;4.786;2023-01-29T11:52:23;5.30;99.90
21039;DHT22;10678;51.002;4.786;2023-01-29T11:54:49;5.30;99.90
21039;DHT22;10678;51.002;4.786;2023-01-29T11:57:36;5.30;99.90
21039;DHT22;10678;51.002;4.786;2023-01-29T12:00:23;5.50;99.90
21039;DHT22;10678;51.002;4.786;2023-01-29T12:05:31;5.70;99.90
21039;DHT22;10678;51.002;4.786;2023-01-29T12:07:58;5.60;99.90
21039;DHT22;10678;51.002;4.786;2023-01-29T12:10:37;5.60;99.90
21039;DHT22;10678;51.002;4.786;2023-01-29T12:15:36;5.60;99.90
21039;DHT22;10678;51.002;4.786;2023-01-29T12:21:01;5.80;99.90
21039;DHT22;10678;51.002;4.786;2023-01-29T12:35:23;5.90;99.90
21039;DHT22;10678;51.002;4.786;2023-01-29T12:37:59;6.20;99.90
21039;DHT22;10678;51.002;4.786;2023-01-29T12:40:30;6.30;99.90
21039;DHT22;10678;51.002;4.786;2023-01-29T12:43:03;6.30;99.90
21039;DHT22;10678;51.002;4.786;2023-01-29T12:45:30;6.20;99.90
21039;DHT22;10678;51.002;4.786;2023-01-29T12:48:00;6.20;99.90
21039;DHT22;10678;51.002;4.786;2023-01-29T12:50:32;6.40;99.90
21039;DHT22;10678;51.002;4.786;2023-01-29T12:53:26;6.10;99.90
21039;DHT22;10678;51.002;4.786;2023-01-29T12:55:59;6.20;99.90
21039;DHT22;10678;51.002;4.786;2023-01-29T12:58:35;6.40;99.90
21039;DHT22;10678;51.002;4.786;2023-01-29T13:01:26;6.60;99.90
21039;DHT22;10678;51.002;4.786;2023-01-29T13:04:02;6.50;99.90
21039;DHT22;10678;51.002;4.786;2023-01-29T13:06:37;6.60;99.90
21039;DHT22;10678;51.002;4.786;2023-01-29T13:09:10;6.70;99.90
21039;DHT22;10678;51.002;4.786;2023-01-29T13:11:50;6.60;99.90
21039;DHT22;10678;51.002;4.786;2023-01-29T13:14:25;6.70;99.90
21039;DHT22;10678;51.002;4.786;2023-01-29T13:17:34;6.50;99.90
21039;DHT22;10678;51.002;4.786;2023-01-29T13:19:52;6.40;99.90
21039;DHT22;10678;51.002;4.786;2023-01-29T13:22:25;6.40;99.90
21039;DHT22;10678;51.002;4.786;2023-01-29T13:24:51;6.30;99.90
21039;DHT22;10678;51.002;4.786;2023-01-29T13:27:23;6.50;99.90
21039;DHT22;10678;51.002;4.786;2023-01-29T13:29:49;6.60;99.90
21039;DHT22;10678;51.002;4.786;2023-01-29T13:32:26;6.50;99.90
21039;DHT22;10678;51.002;4.786;2023-01-29T13:35:04;6.50;99.90
21039;DHT22;10678;51.002;4.786;2023-01-29T13:37:34;6.50;99.90
21039;DHT22;10678;51.002;4.786;2023-01-29T13:40:02;6.30;99.90
21039;DHT22;10678;51.002;4.786;2023-01-29T13:42:42;6.30;99.90
21039;DHT22;10678;51.002;4.786;2023-01-29T13:45:20;6.20;99.90
21039;DHT22;10678;51.002;4.786;2023-01-29T13:47:47;6.10;99.90
21039;DHT22;10678;51.002;4.786;2023-01-29T13:50:23;6.00;99.90
21039;DHT22;10678;51.002;4.786;2023-01-29T13:52:59;6.00;99.90
21039;DHT22;10678;51.002;4.786;2023-01-29T13:55:38;6.10;99.90
21039;DHT22;10678;51.002;4.786;2023-01-29T13:58:51;6.10;99.90
21039;DHT22;10678;51.002;4.786;2023-01-29T14:01:12;6.20;99.90
21039;DHT22;10678;51.002;4.786;2023-01-29T14:03:45;6.10;99.90
21039;DHT22;10678;51.002;4.786;2023-01-29T14:06:39;6.10;99.90
21039;DHT22;10678;51.002;4.786;2023-01-29T14:09:32;6.20;99.90
21039;DHT22;10678;51.002;4.786;2023-01-29T14:11:58;6.30;99.90
21039;DHT22;10678;51.002;4.786;2023-01-29T14:17:11;6.40;99.90
21039;DHT22;10678;51.002;4.786;2023-01-29T14:19:46;6.50;99.90
21039;DHT22;10678;51.002;4.786;2023-01-29T14:22:24;6.20;99.90
21039;DHT22;10678;51.002;4.786;2023-01-29T14:25:03;6.20;99.90
21039;DHT22;10678;51.002;4.786;2023-01-29T14:27:30;6.10;99.90
21039;DHT22;10678;51.002;4.786;2023-01-29T14:30:02;6.00;99.90
21039;DHT22;10678;51.002;4.786;2023-01-29T14:32:28;5.90;99.90
21039;DHT22;10678;51.002;4.786;2023-01-29T14:35:04;5.90;99.90
21039;DHT22;10678;51.002;4.786;2023-01-29T14:37:37;6.10;99.90
21039;DHT22;10678;51.002;4.786;2023-01-29T14:42:38;5.90;99.90
21039;DHT22;10678;51.002;4.786;2023-01-29T14:55:57;6.00;99.90
21039;DHT22;10678;51.002;4.786;2023-01-29T15:01:29;6.20;99.90
21039;DHT22;10678;51.002;4.786;2023-01-29T15:07:04;6.10;99.90
21039;DHT22;10678;51.002;4.786;2023-01-29T15:12:14;6.10;99.90
21039;DHT22;10678;51.002;4.786;2023-01-29T15:15:02;6.00;99.90
21039;DHT22;10678;51.002;4.786;2023-01-29T15:17:38;6.10;99.90
21039;DHT22;10678;51.002;4.786;2023-01-29T15:20:25;6.20;99.90
21039;DHT22;10678;51.002;4.786;2023-01-29T15:22:51;6.10;99.90
21039;DHT22;10678;51.002;4.786;2023-01-29T15:25:17;5.90;99.90
21039;DHT22;10678;51.002;4.786;2023-01-29T15:27:46;5.70;99.90
21039;DHT22;10678;51.002;4.786;2023-01-29T15:30:18;5.80;99.90
21039;DHT22;10678;51.002;4.786;2023-01-29T15:32:44;5.70;99.90
21039;DHT22;10678;51.002;4.786;2023-01-29T15:35:26;5.80;99.90
21039;DHT22;10678;51.002;4.786;2023-01-29T15:40:28;5.80;99.90
21039;DHT22;10678;51.002;4.786;2023-01-29T15:42:53;5.80;99.90
21039;DHT22;10678;51.002;4.786;2023-01-29T15:45:30;5.90;99.90
21039;DHT22;10678;51.002;4.786;2023-01-29T15:48:17;5.90;99.90
21039;DHT22;10678;51.002;4.786;2023-01-29T15:50:44;5.90;99.90
21039;DHT22;10678;51.002;4.786;2023-01-29T15:53:17;5.80;99.90
21039;DHT22;10678;51.002;4.786;2023-01-29T15:55:45;5.80;99.90
21039;DHT22;10678;51.002;4.786;2023-01-29T15:58:15;5.80;99.90
21039;DHT22;10678;51.002;4.786;2023-01-29T16:00:50;5.50;99.90
21039;DHT22;10678;51.002;4.786;2023-01-29T16:03:25;5.50;99.90
21039;DHT22;10678;51.002;4.786;2023-01-29T16:05:53;5.40;99.90
21039;DHT22;10678;51.002;4.786;2023-01-29T16:08:20;5.60;99.90
21039;DHT22;10678;51.002;4.786;2023-01-29T16:10:53;5.70;99.90
21039;DHT22;10678;51.002;4.786;2023-01-29T16:13:28;5.70;99.90
21039;DHT22;10678;51.002;4.786;2023-01-29T16:15:59;5.60;99.90
21039;DHT22;10678;51.002;4.786;2023-01-29T16:18:31;5.50;99.90
21039;DHT22;10678;51.002;4.786;2023-01-29T16:21:00;5.30;99.90
21039;DHT22;10678;51.002;4.786;2023-01-29T16:23:34;5.50;99.90
21039;DHT22;10678;51.002;4.786;2023-01-29T16:26:04;5.60;99.90
21039;DHT22;10678;51.002;4.786;2023-01-29T16:28:30;5.50;99.90
21039;DHT22;10678;51.002;4.786;2023-01-29T16:30:57;5.30;99.90
21039;DHT22;10678;51.002;4.786;2023-01-29T16:33:28;5.20;99.90
21039;DHT22;10678;51.002;4.786;2023-01-29T16:35:56;5.30;99.90
21039;DHT22;10678;51.002;4.786;2023-01-29T16:38:33;5.30;99.90
21039;DHT22;10678;51.002;4.786;2023-01-29T16:43:47;5.30;99.90
21039;DHT22;10678;51.002;4.786;2023-01-29T16:46:26;5.30;99.90
21039;DHT22;10678;51.002;4.786;2023-01-29T16:48:56;5.50;99.90
21039;DHT22;10678;51.002;4.786;2023-01-29T16:51:37;5.50;99.90
21039;DHT22;10678;51.002;4.786;2023-01-29T16:54:10;5.40;99.90
21039;DHT22;10678;51.002;4.786;2023-01-29T16:56:37;5.10;99.90
21039;DHT22;10678;51.002;4.786;2023-01-29T16:59:04;4.90;99.90
21039;DHT22;10678;51.002;4.786;2023-01-29T17:01:31;5.20;99.90
21039;DHT22;10678;51.002;4.786;2023-01-29T17:04:06;5.20;99.90
21039;DHT22;10678;51.002;4.786;2023-01-29T17:06:34;5.30;99.90
21039;DHT22;10678;51.002;4.786;2023-01-29T17:09:00;5.30;99.90
21039;DHT22;10678;51.002;4.786;2023-01-29T17:11:35;5.30;99.90
21039;DHT22;10678;51.002;4.786;2023-01-29T17:14:02;5.30;99.90
21039;DHT22;10678;51.002;4.786;2023-01-29T17:16:31;5.30;99.90
21039;DHT22;10678;51.002;4.786;2023-01-29T17:18:58;5.30;99.90
21039;DHT22;10678;51.002;4.786;2023-01-29T17:21:24;5.40;99.90
21039;DHT22;10678;51.002;4.786;2023-01-29T17:23:51;5.30;99.90
21039;DHT22;10678;51.002;4.786;2023-01-29T17:26:17;5.50;99.90
21039;DHT22;10678;51.002;4.786;2023-01-29T17:28:44;5.30;99.90
21039;DHT22;10678;51.002;4.786;2023-01-29T17:31:10;5.30;99.90
21039;DHT22;10678;51.002;4.786;2023-01-29T17:33:38;5.30;99.90
21039;DHT22;10678;51.002;4.786;2023-01-29T17:36:05;5.10;99.90
21039;DHT22;10678;51.002;4.786;2023-01-29T17:38:30;5.20;99.90
21039;DHT22;10678;51.002;4.786;2023-01-29T17:43:33;5.20;99.90
21039;DHT22;10678;51.002;4.786;2023-01-29T17:45:59;5.20;99.90
21039;DHT22;10678;51.002;4.786;2023-01-29T17:48:26;5.10;99.90
21039;DHT22;10678;51.002;4.786;2023-01-29T17:50:54;5.00;99.90
21039;DHT22;10678;51.002;4.786;2023-01-29T17:53:21;5.10;99.90
21039;DHT22;10678;51.002;4.786;2023-01-29T17:55:48;5.20;99.90
21039;DHT22;10678;51.002;4.786;2023-01-29T17:58:22;5.00;99.90
21039;DHT22;10678;51.002;4.786;2023-01-29T18:00:48;5.10;99.90
21039;DHT22;10678;51.002;4.786;2023-01-29T18:03:14;5.10;99.90
21039;DHT22;10678;51.002;4.786;2023-01-29T18:05:41;5.00;99.90
21039;DHT22;10678;51.002;4.786;2023-01-29T18:08:15;5.10;99.90
21039;DHT22;10678;51.002;4.786;2023-01-29T18:10:41;5.10;99.90
21039;DHT22;10678;51.002;4.786;2023-01-29T18:13:07;5.00;99.90
21039;DHT22;10678;51.002;4.786;2023-01-29T18:15:32;5.00;99.90
21039;DHT22;10678;51.002;4.786;2023-01-29T18:17:58;5.10;99.90
21039;DHT22;10678;51.002;4.786;2023-01-29T18:20:23;5.20;99.90
21039;DHT22;10678;51.002;4.786;2023-01-29T18:22:52;5.10;99.90
21039;DHT22;10678;51.002;4.786;2023-01-29T18:25:18;5.00;99.90
21039;DHT22;10678;51.002;4.786;2023-01-29T18:27:44;4.90;99.90
21039;DHT22;10678;51.002;4.786;2023-01-29T18:30:10;5.10;99.90
21039;DHT22;10678;51.002;4.786;2023-01-29T18:32:37;5.10;99.90
21039;DHT22;10678;51.002;4.786;2023-01-29T18:35:04;5.10;99.90
21039;DHT22;10678;51.002;4.786;2023-01-29T18:37:31;5.20;99.90